Time;durP1;ratioP1;P1;durP2;ratioP2;P2;SDS_P1;SDS_P2;PMS_P1;PMS_P2;Temp;Humidity;BMP_temperature;BMP_pressure;BME280_temperature;BME280_humidity;BME280_pressure;Samples;Min_cycle;Max_cycle;Signal;HPM_P1;HPM_P2
2022/08/31 00:05:42;;;;;;;2.28;1.00;;;15.80;99.90;;;15.81;100.00;99083.06;5022219;28;119563;-71
2022/08/31 00:08:11;;;;;;;1.98;0.93;;;15.80;99.90;;;15.86;100.00;99084.72;5009732;28;119656;-72
2022/08/31 00:10:44;;;;;;;1.42;0.90;;;15.80;99.90;;;15.76;100.00;99080.59;5002339;28;130684;-71
2022/08/31 00:13:13;;;;;;;1.88;1.00;;;15.70;99.90;;;15.82;100.00;99079.19;5001508;28;129430;-73
2022/08/31 00:15:43;;;;;;;2.22;1.02;;;15.70;99.90;;;15.86;100.00;99076.53;5000647;28;122061;-73
2022/08/31 00:18:11;;;;;;;2.42;1.23;;;15.70;99.90;;;15.80;100.00;99081.50;5000769;28;121721;-75
2022/08/31 00:20:40;;;;;;;1.88;0.88;;;15.70;99.90;;;15.73;100.00;99084.03;5001696;28;130678;-72
2022/08/31 00:23:12;;;;;;;2.45;1.70;;;15.70;99.90;;;15.75;100.00;99070.81;5001535;28;130686;-71
2022/08/31 00:25:45;;;;;;;2.13;1.00;;;15.70;99.90;;;15.72;100.00;99074.25;5001841;28;119738;-69
2022/08/31 00:28:16;;;;;;;1.48;1.00;;;15.70;99.90;;;15.78;100.00;99075.59;5001640;28;119489;-75
2022/08/31 00:30:46;;;;;;;1.67;0.98;;;15.70;99.90;;;15.79;100.00;99079.91;5001368;28;129958;-71
2022/08/31 00:33:17;;;;;;;2.97;1.10;;;15.60;99.90;;;15.80;100.00;99076.03;5001967;28;130580;-72
2022/08/31 00:35:45;;;;;;;1.60;1.08;;;15.70;99.90;;;15.79;100.00;99077.16;5003703;28;119487;-73
2022/08/31 00:38:14;;;;;;;2.15;1.40;;;15.70;99.90;;;15.89;100.00;99083.22;5001563;28;119513;-70
2022/08/31 00:40:46;;;;;;;1.42;0.90;;;15.70;99.90;;;15.87;100.00;99074.59;5000149;28;130334;-74
2022/08/31 00:43:45;;;;;;;1.55;0.85;;;15.70;99.90;;;15.89;100.00;99078.53;5004481;28;129789;-73
2022/08/31 00:46:18;;;;;;;2.55;1.08;;;15.70;99.90;;;15.90;100.00;99082.09;5000258;28;120118;-71
2022/08/31 00:49:05;;;;;;;1.05;0.88;;;15.70;99.90;;;15.74;100.00;99080.16;5001635;28;119825;-74
2022/08/31 00:51:39;;;;;;;2.97;1.13;;;15.60;99.90;;;15.52;100.00;99087.06;5001151;28;130376;-71
2022/08/31 00:54:11;;;;;;;2.88;1.00;;;15.30;99.90;;;15.46;100.00;99086.53;5000972;28;129538;-73
2022/08/31 00:56:43;;;;;;;2.03;1.20;;;15.30;99.90;;;15.49;100.00;99081.50;5018488;28;119243;-74
2022/08/31 00:59:14;;;;;;;2.10;1.17;;;15.30;99.90;;;15.52;100.00;99087.06;5023585;28;119177;-72
2022/08/31 01:01:43;;;;;;;1.48;1.17;;;15.30;99.90;;;15.56;100.00;99087.16;5022723;28;130368;-73
2022/08/31 01:04:12;;;;;;;1.55;1.10;;;15.20;99.90;;;15.52;100.00;99089.00;5022218;28;129074;-72
2022/08/31 01:06:42;;;;;;;2.78;1.40;;;15.20;99.90;;;15.51;100.00;99079.22;5019897;28;122265;-72
2022/08/31 01:09:12;;;;;;;3.25;1.00;;;15.20;99.90;;;15.45;100.00;99081.44;5022983;28;121983;-76
2022/08/31 01:11:43;;;;;;;3.60;1.17;;;15.20;99.90;;;15.45;100.00;99075.97;5005887;28;129359;-72
2022/08/31 01:14:11;;;;;;;2.28;1.02;;;15.20;99.90;;;15.48;100.00;99080.72;5020766;28;130046;-73
2022/08/31 01:16:45;;;;;;;1.40;0.90;;;15.30;99.90;;;15.55;100.00;99086.38;5021091;28;119456;-72
2022/08/31 01:19:24;;;;;;;1.90;1.00;;;15.30;99.90;;;15.60;100.00;99082.56;5021024;28;119337;-72
2022/08/31 01:22:02;;;;;;;2.78;1.20;;;15.30;99.90;;;15.51;100.00;99079.22;5019302;28;130071;-75
2022/08/31 01:24:35;;;;;;;1.33;1.00;;;15.20;99.90;;;15.44;100.00;99086.13;5019756;28;130095;-73
2022/08/31 01:27:06;;;;;;;1.90;1.13;;;15.10;99.90;;;15.36;100.00;99086.28;5023199;28;120020;-73
2022/08/31 01:29:36;;;;;;;3.53;1.25;;;15.00;99.90;;;15.42;100.00;99082.91;5019629;28;119635;-73
2022/08/31 01:32:06;;;;;;;1.63;1.27;;;15.00;99.90;;;15.37;100.00;99080.47;5019274;28;130011;-71
2022/08/31 01:34:35;;;;;;;3.67;1.20;;;15.00;99.90;;;15.35;100.00;99077.28;5020344;28;129920;-75
2022/08/31 01:37:04;;;;;;;1.60;1.30;;;15.00;99.90;;;15.32;100.00;99077.19;5005673;28;118494;-71
2022/08/31 01:39:34;;;;;;;1.85;1.05;;;15.00;99.90;;;15.31;100.00;99081.88;5019509;28;119344;-75
2022/08/31 01:42:03;;;;;;;4.28;1.00;;;14.90;99.90;;;15.26;100.00;99079.41;5020083;28;129986;-74
2022/08/31 01:44:31;;;;;;;3.85;1.30;;;14.90;99.90;;;15.29;100.00;99073.25;5022023;28;129312;-70
2022/08/31 01:47:00;;;;;;;1.30;1.00;;;14.90;99.90;;;15.28;100.00;99077.91;5019501;28;119877;-70
2022/08/31 01:49:29;;;;;;;4.70;1.75;;;14.90;99.90;;;15.22;100.00;99081.25;5022912;28;119634;-71
2022/08/31 01:51:58;;;;;;;2.45;1.27;;;14.90;99.90;;;15.28;100.00;99077.13;5019914;28;130994;-71
2022/08/31 01:54:28;;;;;;;2.50;1.40;;;15.00;99.90;;;15.27;100.00;99083.75;5021967;28;128739;-72
2022/08/31 01:57:00;;;;;;;1.80;1.30;;;14.90;99.90;;;15.22;100.00;99076.59;5021094;28;121682;-70
2022/08/31 01:59:43;;;;;;;1.98;1.02;;;14.90;99.90;;;15.25;100.00;99081.38;5021753;28;122121;-71
2022/08/31 02:02:21;;;;;;;2.83;1.40;;;14.90;99.90;;;15.31;100.00;99076.41;5021129;28;129655;-70
2022/08/31 02:04:50;;;;;;;2.28;1.25;;;15.00;99.90;;;15.33;100.00;99076.84;5018220;28;129534;-72
2022/08/31 02:07:21;;;;;;;2.20;1.20;;;15.00;99.90;;;15.31;100.00;99081.88;5018578;28;120034;-73
2022/08/31 02:09:50;;;;;;;3.15;1.33;;;15.00;99.90;;;15.34;100.00;99075.69;5004753;28;119099;-76
2022/08/31 02:12:20;;;;;;;2.38;1.17;;;15.00;99.90;;;15.39;100.00;99072.69;5021876;28;130407;-72
2022/08/31 02:14:49;;;;;;;2.40;1.20;;;15.00;99.90;;;15.44;100.00;99075.19;5018556;28;130959;-72
2022/08/31 02:17:19;;;;;;;2.00;1.27;;;15.00;99.90;;;15.40;100.00;99079.75;5001686;28;118992;-69
2022/08/31 02:19:48;;;;;;;1.55;1.10;;;15.00;99.90;;;15.31;100.00;99087.34;4998477;28;119407;-72
2022/08/31 02:22:16;;;;;;;1.85;1.30;;;14.90;99.90;;;15.04;100.00;99089.03;5016970;28;129602;-73
2022/08/31 02:24:45;;;;;;;2.72;1.20;;;14.80;99.90;;;14.96;100.00;99093.50;5018042;28;130616;-71
2022/08/31 02:27:13;;;;;;;1.60;0.95;;;14.80;99.90;;;14.57;100.00;99093.22;4999851;28;119693;-73
2022/08/31 02:29:43;;;;;;;1.88;1.15;;;14.60;99.90;;;14.49;100.00;99102.34;5018162;28;119318;-72
2022/08/31 02:32:12;;;;;;;1.52;1.20;;;14.60;99.90;;;14.25;100.00;99105.97;4984293;28;129534;-71
2022/08/31 02:34:40;;;;;;;2.92;0.95;;;14.40;99.90;;;14.10;100.00;99100.09;4999510;28;131291;-70
2022/08/31 02:37:09;;;;;;;2.13;1.00;;;14.30;99.90;;;13.98;100.00;99111.81;5014964;28;119564;-71
2022/08/31 02:39:39;;;;;;;1.17;0.88;;;14.30;99.90;;;13.96;100.00;99116.00;4985164;28;118844;-71
2022/08/31 02:42:08;;;;;;;0.73;0.73;;;14.20;99.90;;;13.88;100.00;99117.72;5017788;28;129764;-69
2022/08/31 02:44:36;;;;;;;0.88;0.77;;;14.20;99.90;;;13.83;100.00;99117.97;5019585;27;129904;-69
2022/08/31 02:47:07;;;;;;;1.35;0.90;;;14.10;99.90;;;13.80;100.00;99124.88;5020105;28;121839;-71
2022/08/31 02:49:43;;;;;;;1.70;1.08;;;14.10;99.90;;;13.72;100.00;99117.63;5004296;28;121579;-70
2022/08/31 02:52:12;;;;;;;0.82;0.80;;;14.00;99.90;;;13.68;100.00;99124.09;5020908;28;130032;-69
2022/08/31 02:54:42;;;;;;;0.95;0.88;;;14.00;99.90;;;13.74;100.00;99128.19;5017685;28;129417;-69
2022/08/31 02:57:10;;;;;;;1.67;1.00;;;14.00;99.90;;;13.61;100.00;99130.91;5021127;28;119310;-68
2022/08/31 02:59:39;;;;;;;1.35;0.95;;;13.90;99.90;;;13.58;100.00;99131.59;5021051;28;119003;-69
2022/08/31 03:02:09;;;;;;;1.00;0.90;;;13.90;99.90;;;13.61;100.00;99124.69;5019795;28;129903;-71
2022/08/31 03:04:40;;;;;;;1.30;0.85;;;13.80;99.90;;;13.55;100.00;99137.72;5017589;28;129571;-67
2022/08/31 03:07:09;;;;;;;1.25;0.90;;;13.70;99.90;;;13.36;100.00;99135.56;5017957;28;119731;-68
2022/08/31 03:09:38;;;;;;;2.17;0.82;;;13.60;99.90;;;13.39;100.00;99136.81;5018026;28;119500;-68
2022/08/31 03:12:07;;;;;;;0.98;0.90;;;13.50;99.90;;;13.30;100.00;99137.66;5015846;28;130519;-69
2022/08/31 03:14:35;;;;;;;1.40;0.77;;;13.50;99.90;;;13.26;100.00;99142.22;5020442;28;129681;-69
2022/08/31 03:17:04;;;;;;;1.23;0.70;;;13.50;99.90;;;13.42;100.00;99138.88;5018032;28;119790;-68
2022/08/31 03:19:36;;;;;;;0.75;0.70;;;13.60;99.90;;;13.52;100.00;99143.06;5004203;28;119334;-70
2022/08/31 03:22:06;;;;;;;0.93;0.82;;;13.60;99.90;;;13.47;100.00;99150.31;5018344;28;130041;-68
2022/08/31 03:24:35;;;;;;;0.82;0.70;;;13.60;99.90;;;13.51;100.00;99145.00;5017265;27;129933;-69
2022/08/31 03:27:03;;;;;;;1.85;0.98;;;13.70;99.90;;;13.49;100.00;99155.44;5020353;28;119706;-69
2022/08/31 03:29:33;;;;;;;1.02;0.70;;;13.70;99.90;;;13.51;100.00;99147.75;5021291;28;119423;-68
2022/08/31 03:32:17;;;;;;;0.70;0.68;;;13.70;99.90;;;13.60;100.00;99150.34;5024072;28;130024;-67
2022/08/31 03:34:55;;;;;;;1.80;1.08;;;13.70;99.90;;;13.69;99.74;99152.97;5020810;28;129446;-67
2022/08/31 03:37:24;;;;;;;1.20;0.90;;;13.70;97.10;;;13.58;100.00;99153.41;5022884;28;121684;-66
2022/08/31 03:39:56;;;;;;;1.08;0.80;;;13.60;97.20;;;13.58;100.00;99150.69;5020927;28;122539;-68
2022/08/31 03:42:25;;;;;;;1.60;0.90;;;13.70;98.50;;;13.65;99.99;99148.19;5023784;28;129556;-68
2022/08/31 03:44:54;;;;;;;0.75;0.70;;;13.70;98.00;;;13.63;100.00;99155.94;5003344;28;129303;-68
2022/08/31 03:47:28;;;;;;;0.95;0.70;;;13.60;99.90;;;13.69;100.00;99150.25;5019996;28;119598;-69
2022/08/31 03:49:59;;;;;;;0.90;0.70;;;13.70;99.90;;;13.64;100.00;99146.59;5023645;28;119179;-68
2022/08/31 03:52:33;;;;;;;3.05;0.90;;;13.70;99.90;;;13.71;100.00;99145.22;5023007;28;129737;-71
2022/08/31 03:55:04;;;;;;;1.25;0.90;;;13.70;99.90;;;13.88;99.43;99155.91;5020355;28;130519;-69
2022/08/31 03:57:34;;;;;;;2.65;0.90;;;13.80;99.90;;;13.77;99.94;99160.22;5020095;28;120294;-69
2022/08/31 04:00:06;;;;;;;2.15;0.80;;;13.80;99.90;;;13.93;99.63;99152.97;5020725;28;119964;-68
2022/08/31 04:02:42;;;;;;;1.13;0.82;;;13.80;99.90;;;13.90;98.91;99152.84;5021849;28;129251;-68
2022/08/31 04:05:44;;;;;;;1.77;1.00;;;13.80;98.30;;;13.80;100.00;99159.56;5022581;28;129917;-70
2022/08/31 04:08:13;;;;;;;1.30;0.80;;;13.80;99.90;;;13.76;100.00;99169.53;5021594;28;119766;-66
2022/08/31 04:11:05;;;;;;;1.83;1.08;;;13.80;99.90;;;13.88;100.00;99160.56;5021900;28;119619;-68
2022/08/31 04:14:10;;;;;;;1.55;0.93;;;13.80;99.90;;;13.86;100.00;99163.66;4960702;28;130137;-70
2022/08/31 04:16:42;;;;;;;0.95;0.82;;;13.80;99.90;;;13.96;98.38;99168.66;5011947;27;130108;-67
2022/08/31 04:19:26;;;;;;;1.40;0.90;;;13.80;94.20;;;13.66;100.00;99171.59;5021601;28;120259;-70
2022/08/31 04:22:01;;;;;;;3.17;1.10;;;13.80;97.50;;;13.63;100.00;99171.47;5021400;28;119340;-67
2022/08/31 04:24:35;;;;;;;1.15;0.70;;;13.80;99.90;;;13.79;100.00;99185.22;5021374;28;130421;-72
2022/08/31 04:27:03;;;;;;;1.40;0.82;;;13.80;99.90;;;13.79;100.00;99180.59;5006605;28;128335;-68
2022/08/31 04:29:32;;;;;;;2.03;0.93;;;13.80;99.90;;;13.90;100.00;99180.13;5022458;28;121821;-67
2022/08/31 04:32:00;;;;;;;2.10;1.10;;;13.80;99.90;;;14.01;99.76;99176.59;5020341;28;121779;-67
2022/08/31 04:34:29;;;;;;;4.78;1.13;;;13.90;99.90;;;14.27;97.30;99189.06;5023013;28;129254;-70
2022/08/31 04:36:58;;;;;;;1.13;0.85;;;14.00;91.30;;;14.33;95.67;99184.16;5019787;28;129225;-70
2022/08/31 04:39:28;;;;;;;2.00;1.00;;;14.00;91.40;;;14.32;94.98;99186.13;5020102;28;120163;-68
2022/08/31 04:41:57;;;;;;;1.98;1.17;;;14.00;91.40;;;14.26;95.61;99181.22;5023523;28;119030;-68
2022/08/31 04:44:27;;;;;;;3.13;0.95;;;14.00;91.40;;;14.06;96.08;99188.44;5019670;28;130397;-67
2022/08/31 04:46:58;;;;;;;1.08;0.82;;;13.90;87.20;;;14.09;96.31;99190.47;5020274;28;129755;-66
2022/08/31 04:49:27;;;;;;;4.32;0.98;;;14.00;85.50;;;14.18;94.86;99182.97;5023336;28;119289;-68
2022/08/31 04:51:55;;;;;;;1.55;1.05;;;14.00;76.90;;;14.28;94.77;99190.66;5020024;28;119658;-71
2022/08/31 04:54:28;;;;;;;2.05;1.20;;;14.00;81.30;;;14.20;93.94;99186.13;5018387;28;129932;-67
2022/08/31 04:56:58;;;;;;;1.20;0.90;;;14.00;71.80;;;14.01;95.39;99203.88;5019589;28;129507;-69
2022/08/31 04:59:32;;;;;;;1.60;0.90;;;13.90;76.60;;;14.25;94.39;99199.53;5023150;28;120015;-68
2022/08/31 05:02:21;;;;;;;1.13;0.90;;;14.00;73.10;;;14.25;93.28;99199.53;5016558;28;119317;-69
2022/08/31 05:04:56;;;;;;;1.63;1.00;;;14.00;67.00;;;14.39;92.51;99201.91;5022889;28;129789;-67
2022/08/31 05:07:25;;;;;;;1.95;1.00;;;14.00;66.70;;;14.06;92.86;99212.97;5019260;28;129619;-68
2022/08/31 05:09:57;;;;;;;2.00;1.10;;;13.90;56.90;;;13.91;92.92;99212.50;5023535;28;120178;-69
2022/08/31 05:12:26;;;;;;;1.95;1.30;;;13.80;49.40;;;14.01;93.13;99214.78;5020458;28;119253;-70
2022/08/31 05:14:54;;;;;;;1.88;1.13;;;13.90;54.20;;;13.85;93.16;99222.03;5022626;28;130218;-70
2022/08/31 05:17:26;;;;;;;1.75;1.17;;;13.70;57.20;;;13.99;93.33;99211.63;5019388;28;129474;-65
2022/08/31 05:19:54;;;;;;;1.58;0.90;;;13.80;60.20;;;14.23;91.69;99225.56;5021708;28;122646;-69
2022/08/31 05:22:23;;;;;;;1.60;0.80;;;13.90;48.80;;;14.17;88.90;99227.75;5019458;28;121428;-68
2022/08/31 05:24:54;;;;;;;1.90;0.80;;;13.80;29.30;;;14.11;89.08;99234.56;5022494;28;128973;-68
2022/08/31 05:27:23;;;;;;;2.25;0.90;;;13.70;31.60;;;13.98;88.82;99231.84;5019309;28;129439;-68
2022/08/31 05:29:52;;;;;;;6.00;0.85;;;13.70;25.40;;;13.99;88.93;99236.16;5022545;28;119117;-67
2022/08/31 05:32:39;;;;;;;3.42;0.80;;;13.80;27.60;;;14.05;88.20;99238.66;5023547;28;119732;-67
2022/08/31 05:35:11;;;;;;;1.27;0.90;;;13.80;23.50;;;13.91;89.23;99237.06;5020447;28;129883;-69
2022/08/31 05:37:42;;;;;;;2.35;1.00;;;13.80;24.30;;;14.12;88.48;99241.63;5019638;28;129544;-69
2022/08/31 05:40:12;;;;;;;3.33;0.90;;;13.90;17.50;;;14.22;86.19;99252.06;5022796;28;119248;-69
2022/08/31 05:42:41;;;;;;;1.40;0.95;;;13.90;10.70;;;13.90;86.47;99249.13;5020658;28;119372;-68
2022/08/31 05:45:11;;;;;;;1.27;0.70;;;13.70;5.90;;;13.81;87.41;99253.88;5020987;28;129622;-71
2022/08/31 05:47:41;;;;;;;1.75;0.93;;;13.80;4.10;;;13.71;87.59;99248.84;5019012;28;129926;-71
2022/08/31 05:50:10;;;;;;;3.28;0.90;;;13.70;5.50;;;13.99;85.86;99244.34;5021849;28;119259;-70
2022/08/31 05:52:41;;;;;;;3.25;0.90;;;13.90;1.00;;;13.92;85.53;99252.28;5019176;28;119611;-70
2022/08/31 05:55:11;;;;;;;1.38;0.85;;;13.80;1.00;;;14.09;83.22;99255.97;5022189;28;129903;-66
2022/08/31 05:57:41;;;;;;;1.50;0.73;;;13.90;1.00;;;14.06;81.39;99264.81;5019213;28;130043;-69
2022/08/31 06:00:11;;;;;;;1.92;0.80;;;13.80;1.00;;;13.96;82.22;99261.41;5022498;28;119225;-67
2022/08/31 06:02:47;;;;;;;2.80;0.90;;;13.80;1.00;;;13.84;82.75;99255.94;5022734;28;118806;-67
2022/08/31 06:05:15;;;;;;;1.92;1.25;;;13.70;1.00;;;13.79;83.18;99261.59;5018893;28;130291;-67
2022/08/31 06:07:47;;;;;;;2.30;0.80;;;13.70;1.00;;;14.26;81.58;99263.91;5021886;28;128975;-69
2022/08/31 06:10:19;;;;;;;1.52;0.98;;;14.00;1.00;;;14.48;77.89;99272.78;5017711;28;122192;-71
2022/08/31 06:12:49;;;;;;;1.98;1.00;;;14.00;1.00;;;14.56;77.26;99263.66;5019384;28;121912;-66
2022/08/31 06:15:19;;;;;;;1.35;0.80;;;14.00;1.00;;;14.82;74.93;99270.66;5018820;28;129903;-69
2022/08/31 06:17:48;;;;;;;3.60;1.20;;;14.00;1.00;;;14.67;75.06;99278.44;5018615;28;130244;-68
2022/08/31 06:20:17;;;;;;;2.63;1.10;;;14.00;1.00;;;14.49;75.67;99285.25;5018770;28;119533;-69
2022/08/31 06:22:47;;;;;;;2.45;1.48;;;14.00;1.00;;;14.59;71.08;99276.63;5022076;28;119337;-69
2022/08/31 06:25:24;;;;;;;2.85;1.15;;;14.10;1.00;;;14.75;71.33;99276.72;5021636;28;129145;-67
2022/08/31 06:27:55;;;;;;;1.13;0.75;;;14.30;1.00;;;14.72;69.99;99272.75;5022060;28;129350;-70
2022/08/31 06:30:26;;;;;;;1.92;0.82;;;14.30;1.00;;;15.10;67.93;99276.97;5018900;28;119919;-67
2022/08/31 06:32:54;;;;;;;2.10;0.80;;;14.60;1.00;;;15.23;67.63;99287.88;5018913;28;119367;-68
2022/08/31 06:35:29;;;;;;;1.85;0.88;;;14.70;1.00;;;15.51;66.83;99287.84;5020316;28;130003;-68
2022/08/31 06:38:20;;;;;;;2.00;1.00;;;14.90;1.00;;;15.04;67.83;99300.22;5022056;27;130111;-72
2022/08/31 06:41:13;;;;;;;1.38;0.73;;;14.50;1.00;;;14.63;69.74;99304.88;5021592;28;119658;-72
2022/08/31 06:44:04;;;;;;;2.17;1.05;;;14.20;1.00;;;14.56;70.82;99288.22;5022940;27;118966;-66
2022/08/31 06:46:41;;;;;;;1.20;0.80;;;14.30;1.00;;;14.86;69.88;99286.03;5004678;28;130236;-70
2022/08/31 06:49:25;;;;;;;1.48;0.70;;;14.50;1.00;;;15.07;69.46;99288.59;5018250;28;129422;-69
2022/08/31 06:51:53;;;;;;;3.42;1.20;;;14.70;1.00;;;15.15;70.07;99297.78;5021566;28;119818;-66
2022/08/31 06:54:22;;;;;;;1.00;0.80;;;14.60;1.00;;;14.82;70.56;99295.25;5018776;28;119712;-69
2022/08/31 06:57:09;;;;;;;1.33;0.80;;;14.40;1.00;;;14.85;70.84;99294.56;5019057;28;130659;-67
2022/08/31 06:59:58;;;;;;;2.17;1.00;;;14.40;1.00;;;14.99;70.86;99295.00;5021343;27;129709;-65
2022/08/31 07:02:47;;;;;;;0.80;0.80;;;14.60;1.00;;;15.44;67.88;99299.41;5023583;28;122427;-67
2022/08/31 07:05:15;;;;;;;1.45;1.00;;;14.90;1.00;;;16.02;67.05;99305.59;5025174;28;120666;-69
2022/08/31 07:07:46;;;;;;;2.20;0.90;;;15.30;1.00;;;16.32;62.92;99304.00;5025012;28;129615;-68
2022/08/31 07:10:14;;;;;;;2.83;1.10;;;15.20;1.00;;;15.96;64.81;99302.34;5021611;28;129281;-68
2022/08/31 07:12:43;;;;;;;1.48;0.82;;;15.20;1.00;;;15.58;62.76;99303.66;5021894;28;119495;-66
2022/08/31 07:15:13;;;;;;;1.40;0.60;;;15.00;1.00;;;15.86;61.56;99302.84;5024894;28;119148;-68
2022/08/31 07:17:42;;;;;;;0.98;0.77;;;15.20;1.00;;;16.02;62.09;99303.66;5024617;28;130004;-68
2022/08/31 07:20:12;;;;;;;2.67;0.90;;;15.30;1.00;;;16.11;60.85;99304.28;5024757;28;129432;-69
2022/08/31 07:22:40;;;;;;;2.42;1.13;;;15.40;1.00;;;16.20;60.54;99311.50;5021564;28;120165;-66
2022/08/31 07:25:28;;;;;;;2.47;1.02;;;15.50;1.00;;;16.82;62.34;99309.81;5024633;28;119910;-71
2022/08/31 07:27:58;;;;;;;2.63;0.95;;;15.40;1.00;;;16.85;62.77;99309.09;5020268;28;130454;-69
2022/08/31 07:30:33;;;;;;;1.92;0.80;;;15.20;1.00;;;16.77;62.40;99304.63;5007551;28;128399;-67
2022/08/31 07:33:05;;;;;;;1.83;0.80;;;15.00;1.00;;;16.87;61.75;99312.31;5021111;28;120067;-71
2022/08/31 07:35:37;;;;;;;1.45;0.80;;;15.20;1.00;;;16.77;62.65;99321.06;5024563;28;119251;-69
2022/08/31 07:43:58;;;;;;;2.80;0.98;;;14.60;1.00;;;15.39;68.73;99312.50;5024083;28;121521;-69
2022/08/31 07:46:30;;;;;;;3.78;0.90;;;14.70;1.00;;;15.46;67.00;99324.44;5023065;28;119748;-68
2022/08/31 07:49:00;;;;;;;2.35;1.05;;;14.90;1.00;;;15.95;65.14;99319.88;5021190;28;130278;-69
2022/08/31 07:51:29;;;;;;;2.20;1.10;;;15.30;1.00;;;16.42;64.08;99324.56;5023868;28;128515;-68
2022/08/31 07:54:10;;;;;;;1.13;0.70;;;15.70;1.00;;;16.47;61.61;99323.50;5023262;28;121911;-68
2022/08/31 07:56:48;;;;;;;1.30;0.70;;;15.70;1.00;;;16.75;59.33;99328.03;5022410;28;121790;-69
2022/08/31 07:59:23;;;;;;;2.70;0.88;;;15.90;1.00;;;16.63;58.73;99328.97;5023754;28;129967;-69
2022/08/31 08:01:55;;;;;;;2.08;1.02;;;15.80;1.00;;;15.92;59.65;99328.81;5022689;28;130128;-69
2022/08/31 08:04:25;;;;;;;1.63;1.08;;;15.10;1.00;;;15.82;61.83;99327.38;5007732;28;119495;-67
2022/08/31 08:07:15;;;;;;;2.78;1.00;;;15.10;1.00;;;15.60;61.14;99326.78;5024001;28;118656;-68
2022/08/31 08:09:54;;;;;;;1.23;0.90;;;15.20;1.00;;;16.13;60.67;99325.81;5021581;28;130110;-69
2022/08/31 08:12:57;;;;;;;2.70;0.93;;;15.50;1.00;;;16.83;58.52;99322.38;5018380;27;130098;-71
2022/08/31 08:15:37;;;;;;;2.47;1.00;;;16.20;1.00;;;17.16;57.77;99339.56;5020792;28;119864;-70
2022/08/31 08:18:21;;;;;;;2.05;0.77;;;16.30;1.00;;;17.02;57.92;99329.06;5021975;28;119406;-66
2022/08/31 08:20:56;;;;;;;4.38;1.00;;;15.60;1.00;;;16.96;59.10;99327.78;5019087;28;129890;-69
2022/08/31 08:23:25;;;;;;;1.98;0.80;;;15.80;1.00;;;16.57;59.69;99341.34;5023702;28;129030;-67
2022/08/31 08:26:09;;;;;;;1.70;0.88;;;15.40;1.00;;;16.34;61.25;99328.28;5024284;28;118506;-70
2022/08/31 08:28:57;;;;;;;2.35;1.00;;;15.40;1.00;;;16.70;59.71;99332.66;5025141;27;119120;-68
2022/08/31 08:31:27;;;;;;;8.05;1.33;;;15.40;1.00;;;17.34;58.06;99331.69;5006715;28;129138;-71
2022/08/31 08:33:58;;;;;;;5.65;1.20;;;15.90;1.00;;;17.54;56.68;99333.25;5019993;28;129624;-71
2022/08/31 08:36:27;;;;;;;2.05;0.90;;;16.10;1.00;;;18.08;53.68;99333.50;5023684;28;119505;-69
2022/08/31 08:38:56;;;;;;;3.15;1.00;;;16.50;1.00;;;17.87;53.59;99331.94;5020828;28;119661;-71
2022/08/31 08:41:29;;;;;;;2.08;0.90;;;16.50;1.00;;;17.70;53.66;99341.41;5022929;28;129895;-70
2022/08/31 08:44:03;;;;;;;2.38;1.10;;;16.50;1.00;;;16.87;57.55;99333.44;5020005;28;130037;-68
2022/08/31 08:46:39;;;;;;;2.75;0.90;;;15.90;1.00;;;15.99;60.93;99342.69;5018863;28;122831;-68
2022/08/31 08:49:19;;;;;;;4.50;1.60;;;15.30;1.00;;;16.04;62.38;99334.19;5020317;28;122223;-66
2022/08/31 08:51:54;;;;;;;2.70;1.10;;;15.60;1.00;;;16.51;58.20;99336.13;5023189;28;129706;-70
2022/08/31 08:54:32;;;;;;;1.73;1.08;;;16.10;1.00;;;16.95;56.13;99326.97;5022927;28;129790;-67
2022/08/31 08:57:11;;;;;;;2.47;1.27;;;16.50;1.00;;;17.43;53.73;99326.78;5023277;28;118910;-70
2022/08/31 08:59:42;;;;;;;2.13;1.00;;;16.60;1.00;;;17.57;53.16;99332.53;5006505;28;119073;-69
2022/08/31 09:02:18;;;;;;;2.63;1.10;;;16.60;1.00;;;17.27;54.44;99337.03;5022521;28;129633;-72
2022/08/31 09:05:15;;;;;;;1.60;0.82;;;16.50;1.00;;;17.22;55.99;99347.13;5006678;28;129282;-67
2022/08/31 09:08:31;;;;;;;2.80;1.25;;;16.60;1.00;;;16.46;59.42;99346.56;5020513;28;119469;-72
2022/08/31 09:11:16;;;;;;;2.40;1.10;;;15.90;1.00;;;16.51;59.14;99344.34;5019693;28;119671;-68
2022/08/31 09:14:05;;;;;;;1.75;1.02;;;15.80;1.00;;;16.36;58.78;99347.88;5021524;28;130947;-72
2022/08/31 09:16:46;;;;;;;2.13;1.02;;;15.80;1.00;;;16.58;57.80;99342.91;5019783;28;130267;-70
2022/08/31 09:19:18;;;;;;;2.45;1.50;;;16.00;1.00;;;17.06;53.67;99343.63;5023001;28;120265;-67
2022/08/31 09:21:50;;;;;;;3.15;1.00;;;16.50;1.00;;;17.13;53.05;99346.53;5019984;28;120184;-68
2022/08/31 09:24:26;;;;;;;3.65;1.23;;;16.50;1.00;;;17.84;50.79;99349.13;5021460;28;129420;-67
2022/08/31 09:27:45;;;;;;;3.72;1.42;;;17.00;1.00;;;18.82;46.24;99337.78;5019110;28;129208;-72
2022/08/31 09:30:32;;;;;;;2.42;0.90;;;17.50;1.00;;;18.74;46.28;99330.59;5020645;28;119884;-68
2022/08/31 09:33:00;;;;;;;1.67;1.00;;;17.50;1.00;;;18.02;48.45;99340.44;5021142;28;119647;-68
2022/08/31 09:35:39;;;;;;;2.83;1.00;;;16.70;1.00;;;17.09;50.95;99342.91;5020533;28;130230;-67
2022/08/31 09:38:15;;;;;;;3.50;1.13;;;16.30;1.00;;;17.08;51.35;99349.56;5020698;28;129473;-69
2022/08/31 09:40:49;;;;;;;4.22;1.67;;;16.40;1.00;;;17.85;50.67;99345.22;5019592;28;121860;-70
2022/08/31 09:43:33;;;;;;;3.60;1.13;;;17.00;1.00;;;18.96;47.93;99343.50;5020850;28;121821;-70
2022/08/31 09:46:07;;;;;;;3.45;1.02;;;17.50;1.00;;;19.11;46.82;99352.75;5020285;28;131115;-66
2022/08/31 09:48:50;;;;;;;12.52;1.52;;;17.30;1.00;;;19.29;46.71;99355.75;5020377;28;129678;-68
2022/08/31 09:51:26;;;;;;;3.00;1.10;;;17.40;1.00;;;18.13;49.15;99366.13;5020601;28;119609;-74
2022/08/31 09:57:07;;;;;;;1.98;1.00;;;16.80;1.00;;;18.50;49.60;99354.59;5023082;28;129939;-68
2022/08/31 09:59:42;;;;;;;2.00;0.90;;;17.70;1.00;;;19.45;46.23;99352.78;5020588;28;130144;-69
2022/08/31 10:02:28;;;;;;;2.80;1.05;;;18.00;1.00;;;19.12;47.26;99367.28;5022793;28;120025;-72
2022/08/31 10:05:02;;;;;;;2.78;1.00;;;17.50;1.00;;;18.07;49.74;99359.34;5020699;28;119109;-66
2022/08/31 10:07:43;;;;;;;2.25;0.95;;;16.80;1.00;;;18.09;50.61;99362.50;5018819;28;130852;-68
2022/08/31 10:10:17;;;;;;;10.13;1.50;;;17.00;1.00;;;18.33;51.43;99362.16;5020222;28;129515;-68
2022/08/31 10:12:54;;;;;;;2.35;1.13;;;17.30;1.00;;;17.99;51.86;99360.38;5020677;28;119937;-66
2022/08/31 10:15:29;;;;;;;4.00;1.20;;;16.60;1.00;;;18.17;52.55;99361.50;5020254;28;119767;-67
2022/08/31 10:18:12;;;;;;;3.17;1.07;;;16.90;1.00;;;19.06;48.81;99363.25;5022220;28;129402;-70
2022/08/31 10:20:47;;;;;;;4.43;1.25;;;17.40;1.00;;;19.06;48.05;99357.75;5020089;28;129547;-68
2022/08/31 10:23:26;;;;;;;7.82;1.23;;;17.60;1.00;;;19.95;46.64;99362.78;5020203;28;119740;-68
2022/08/31 10:26:02;;;;;;;2.78;1.58;;;18.10;1.00;;;20.06;46.64;99358.97;5020518;28;119331;-72
2022/08/31 10:28:39;;;;;;;3.80;1.48;;;18.20;1.00;;;18.98;46.65;99363.19;5019893;28;129863;-68
2022/08/31 10:31:19;;;;;;;2.95;0.95;;;17.10;1.00;;;17.75;49.57;99363.06;5019585;28;129256;-67
2022/08/31 10:36:48;;;;;;;1.87;0.73;;;16.70;1.00;;;18.10;48.81;99367.66;5019896;28;122143;-69
2022/08/31 10:39:28;;;;;;;1.60;1.00;;;17.10;1.00;;;18.15;48.63;99369.28;5019589;28;130251;-67
2022/08/31 10:42:04;;;;;;;3.85;1.23;;;17.10;1.00;;;17.55;49.04;99367.78;5019506;28;129493;-70
2022/08/31 10:44:41;;;;;;;1.57;0.80;;;16.80;1.00;;;16.84;51.15;99367.81;5021803;28;118464;-67
2022/08/31 10:47:11;;;;;;;2.97;1.63;;;16.30;1.00;;;17.00;51.85;99369.75;5019929;28;119438;-68
2022/08/31 10:49:39;;;;;;;4.20;1.50;;;16.40;1.00;;;17.99;49.62;99369.41;5021425;28;129789;-69
2022/08/31 10:52:17;;;;;;;3.17;1.50;;;17.00;1.00;;;18.85;47.56;99364.56;5019803;28;129520;-68
2022/08/31 10:54:54;;;;;;;1.35;0.80;;;17.60;1.00;;;19.25;46.49;99365.91;5020225;28;119965;-68
2022/08/31 10:57:35;;;;;;;1.92;0.90;;;17.90;1.00;;;19.22;45.96;99377.66;5019708;28;119037;-71